Time;durP1;ratioP1;P1;durP2;ratioP2;P2;SDS_P1;SDS_P2;PMS_P1;PMS_P2;Temp;Humidity;BMP_temperature;BMP_pressure;BME280_temperature;BME280_humidity;BME280_pressure;Samples;Min_cycle;Max_cycle;Signal;HPM_P1;HPM_P2
2022/05/04 00:00:11;;;;;;;7.47;5.57;;;;;;;-140.79;100.00;63287.88;5063485;28;20040;-48
2022/05/04 00:02:37;;;;;;;8.07;5.70;;;;;;;-140.79;100.00;63287.88;5062767;28;20021;-48
2022/05/04 00:05:03;;;;;;;7.90;5.38;;;;;;;-140.79;100.00;63287.88;5061471;28;20035;-48
2022/05/04 00:07:28;;;;;;;7.20;5.15;;;;;;;-140.79;100.00;63287.88;5062846;28;20116;-48
2022/05/04 00:09:55;;;;;;;8.57;5.93;;;;;;;-140.79;100.00;63287.88;5062399;28;20679;-47
2022/05/04 00:12:21;;;;;;;7.47;5.50;;;;;;;-140.79;100.00;63287.88;5062132;28;20089;-46
2022/05/04 00:14:46;;;;;;;6.28;4.78;;;;;;;-140.79;100.00;63287.88;5062679;28;20240;-47
2022/05/04 00:17:12;;;;;;;9.05;5.65;;;;;;;-140.79;100.00;63287.88;5064306;28;20017;-48
2022/05/04 00:19:37;;;;;;;7.05;5.13;;;;;;;-140.79;100.00;63287.88;5063995;28;20033;-46
2022/05/04 00:22:03;;;;;;;7.50;5.18;;;;;;;-140.79;100.00;63287.88;5062135;28;20416;-47
2022/05/04 00:24:28;;;;;;;7.53;5.35;;;;;;;-140.79;100.00;63287.88;5061882;28;20041;-48
2022/05/04 00:26:53;;;;;;;7.43;4.85;;;;;;;-140.79;100.00;63287.88;5062495;28;20462;-48
2022/05/04 00:29:19;;;;;;;7.07;4.95;;;;;;;-140.79;100.00;63287.88;5061851;28;20510;-47
2022/05/04 00:31:44;;;;;;;6.50;4.80;;;;;;;-140.79;100.00;63287.88;5062082;28;20526;-47
2022/05/04 00:34:10;;;;;;;7.78;5.15;;;;;;;-140.79;100.00;63287.88;5063003;28;20024;-48
2022/05/04 00:36:35;;;;;;;6.80;4.90;;;;;;;-140.79;100.00;63287.88;5059667;28;20025;-48
2022/05/04 00:39:00;;;;;;;6.57;5.10;;;;;;;-140.79;100.00;63287.88;5059461;28;20016;-47
2022/05/04 00:41:26;;;;;;;6.75;4.88;;;;;;;-140.79;100.00;63287.88;5059916;28;20385;-48
2022/05/04 00:43:54;;;;;;;7.25;5.35;;;;;;;-140.79;100.00;63287.88;5062727;28;20487;-47
2022/05/04 00:46:20;;;;;;;7.40;5.05;;;;;;;-140.79;100.00;63287.88;5061307;28;20016;-47
2022/05/04 00:48:45;;;;;;;6.57;4.85;;;;;;;-140.79;100.00;63287.88;5062952;28;20027;-48
2022/05/04 00:51:11;;;;;;;7.15;4.68;;;;;;;-140.79;100.00;63287.88;5059264;28;20067;-48
2022/05/04 00:53:37;;;;;;;7.30;4.97;;;;;;;-140.79;100.00;63287.88;5058708;28;20127;-47
2022/05/04 00:56:03;;;;;;;7.35;5.03;;;;;;;-140.79;100.00;63287.88;5059805;28;20025;-47
2022/05/04 01:01:12;;;;;;;8.43;5.07;;;;;;;-140.79;100.00;63287.88;5060786;28;20128;-47
2022/05/04 01:03:38;;;;;;;6.30;4.47;;;;;;;-140.79;100.00;63287.88;5059848;28;20029;-48
2022/05/04 01:06:03;;;;;;;6.53;4.43;;;;;;;-140.79;100.00;63287.88;5059606;28;20021;-47
2022/05/04 01:08:29;;;;;;;6.82;4.20;;;;;;;-140.79;100.00;63287.88;5062548;28;20021;-47
2022/05/04 01:10:54;;;;;;;7.35;4.80;;;;;;;-140.79;100.00;63287.88;5064113;28;20143;-48
2022/05/04 01:13:20;;;;;;;6.80;5.10;;;;;;;-140.79;100.00;63287.88;5062273;28;20020;-47
2022/05/04 01:15:46;;;;;;;6.50;4.55;;;;;;;-140.79;100.00;63287.88;5060422;28;20028;-47
2022/05/04 01:18:12;;;;;;;7.40;4.85;;;;;;;-140.79;100.00;63287.88;5062532;28;20466;-47
2022/05/04 01:20:37;;;;;;;6.43;4.57;;;;;;;-140.79;100.00;63287.88;5059614;28;20024;-48
2022/05/04 01:23:02;;;;;;;5.13;3.95;;;;;;;-140.79;100.00;63287.88;5063662;28;20033;-47
2022/05/04 01:25:28;;;;;;;5.93;4.32;;;;;;;-140.79;100.00;63287.88;5063558;28;20020;-48
2022/05/04 01:27:55;;;;;;;5.95;4.90;;;;;;;-140.79;100.00;63287.88;5063183;28;20033;-48
2022/05/04 01:30:21;;;;;;;5.82;4.32;;;;;;;-140.79;100.00;63287.88;5061509;28;20027;-48
2022/05/04 01:32:46;;;;;;;6.75;4.50;;;;;;;-140.79;100.00;63287.88;5063719;28;20017;-47
2022/05/04 01:35:12;;;;;;;6.05;4.43;;;;;;;-140.79;100.00;63287.88;5061737;28;20017;-47
2022/05/04 01:37:37;;;;;;;6.05;4.03;;;;;;;-140.79;100.00;63287.88;5059527;28;20412;-47
2022/05/04 01:40:03;;;;;;;6.68;4.68;;;;;;;-140.79;100.00;63287.88;5062473;28;20013;-48
2022/05/04 01:42:29;;;;;;;7.65;5.10;;;;;;;-140.79;100.00;63287.88;5060158;28;20495;-47
2022/05/04 01:44:54;;;;;;;6.70;4.70;;;;;;;-140.79;100.00;63287.88;5062093;28;20032;-47
2022/05/04 01:47:20;;;;;;;6.03;4.30;;;;;;;-140.79;100.00;63287.88;5061757;28;20023;-49
2022/05/04 01:49:45;;;;;;;5.78;4.40;;;;;;;-140.79;100.00;63287.88;5060684;28;20488;-47
2022/05/04 01:52:11;;;;;;;7.15;4.30;;;;;;;-140.79;100.00;63287.88;5063347;28;20055;-48
2022/05/04 01:54:36;;;;;;;5.05;3.92;;;;;;;-140.79;100.00;63287.88;5043936;28;20545;-48
2022/05/04 01:57:01;;;;;;;6.30;4.78;;;;;;;-140.79;100.00;63287.88;5060399;28;20025;-47
2022/05/04 01:59:27;;;;;;;6.43;4.60;;;;;;;-140.79;100.00;63287.88;5061064;28;20032;-48
2022/05/04 02:01:52;;;;;;;6.00;4.20;;;;;;;-140.79;100.00;63287.88;5059483;28;20024;-49
2022/05/04 02:04:18;;;;;;;5.88;4.43;;;;;;;-140.79;100.00;63287.88;5058033;28;20063;-46
2022/05/04 02:06:43;;;;;;;6.13;4.07;;;;;;;-140.79;100.00;63287.88;5059033;28;20060;-48
2022/05/04 02:09:09;;;;;;;6.13;4.32;;;;;;;-140.79;100.00;63287.88;5059842;28;20083;-48
2022/05/04 02:11:35;;;;;;;5.57;4.20;;;;;;;-140.79;100.00;63287.88;5063108;28;20032;-46
2022/05/04 02:14:00;;;;;;;6.70;4.82;;;;;;;-140.79;100.00;63287.88;5045180;28;20050;-48
2022/05/04 02:16:26;;;;;;;5.40;3.95;;;;;;;-140.79;100.00;63287.88;5062445;28;20029;-48
2022/05/04 02:18:52;;;;;;;5.63;3.97;;;;;;;-140.79;100.00;63287.88;5060444;28;20086;-49
2022/05/04 02:21:17;;;;;;;5.72;4.10;;;;;;;-140.79;100.00;63287.88;5059733;28;20077;-49
2022/05/04 02:23:43;;;;;;;5.72;3.90;;;;;;;-140.79;100.00;63287.88;5060594;28;20050;-46
2022/05/04 02:26:08;;;;;;;4.90;4.00;;;;;;;-140.79;100.00;63287.88;5058650;28;20138;-48
2022/05/04 02:28:34;;;;;;;5.13;3.75;;;;;;;-140.79;100.00;63287.88;5040507;28;20435;-48
2022/05/04 02:30:59;;;;;;;5.47;3.92;;;;;;;-140.79;100.00;63287.88;5062740;28;20285;-48
2022/05/04 02:33:24;;;;;;;6.68;4.32;;;;;;;-140.79;100.00;63287.88;5062787;28;20033;-48
2022/05/04 02:38:34;;;;;;;5.75;3.85;;;;;;;-140.79;100.00;63287.88;5065131;28;20063;-47
2022/05/04 02:40:59;;;;;;;6.32;4.00;;;;;;;-140.79;100.00;63287.88;5063274;28;20020;-48
2022/05/04 02:43:26;;;;;;;6.03;4.43;;;;;;;-140.79;100.00;63287.88;5062270;28;20032;-48
2022/05/04 02:45:52;;;;;;;5.90;3.97;;;;;;;-140.79;100.00;63287.88;5066228;28;20028;-47
2022/05/04 02:48:17;;;;;;;4.60;3.63;;;;;;;-140.79;100.00;63287.88;5065349;28;20042;-48
2022/05/04 02:50:42;;;;;;;5.03;4.00;;;;;;;-140.79;100.00;63287.88;5064667;28;20028;-48
2022/05/04 02:53:08;;;;;;;5.10;3.55;;;;;;;-140.79;100.00;63287.88;5064181;28;20114;-48
2022/05/04 02:55:33;;;;;;;5.57;3.90;;;;;;;-140.79;100.00;63287.88;5066802;28;20035;-48
2022/05/04 02:58:00;;;;;;;5.25;3.90;;;;;;;-140.79;100.00;63287.88;5062008;28;20017;-48
2022/05/04 03:00:26;;;;;;;5.30;3.90;;;;;;;-140.79;100.00;63287.88;5063429;28;20040;-47
2022/05/04 03:02:51;;;;;;;5.78;3.95;;;;;;;-140.79;100.00;63287.88;5044248;28;20436;-46
2022/05/04 03:05:18;;;;;;;5.85;3.83;;;;;;;-140.79;100.00;63287.88;5061850;28;20031;-47
2022/05/04 03:07:43;;;;;;;5.82;4.28;;;;;;;-140.79;100.00;63287.88;5064778;28;20013;-47
2022/05/04 03:10:09;;;;;;;5.15;4.00;;;;;;;-140.79;100.00;63287.88;5064815;28;20032;-47
2022/05/04 03:12:34;;;;;;;5.63;3.95;;;;;;;-140.79;100.00;63287.88;5063855;28;20037;-48
2022/05/04 03:15:00;;;;;;;5.38;3.80;;;;;;;-140.79;100.00;63287.88;5063936;28;20024;-46
2022/05/04 03:17:25;;;;;;;5.20;3.70;;;;;;;-140.79;100.00;63287.88;5066132;28;20082;-47
2022/05/04 03:19:51;;;;;;;5.20;3.42;;;;;;;-140.79;100.00;63287.88;5060494;28;20071;-47
2022/05/04 03:22:17;;;;;;;4.70;3.60;;;;;;;-140.79;100.00;63287.88;5061736;28;20097;-47
2022/05/04 03:24:42;;;;;;;5.28;3.67;;;;;;;-140.79;100.00;63287.88;5065043;28;20028;-47
2022/05/04 03:27:08;;;;;;;4.80;3.63;;;;;;;-140.79;100.00;63287.88;5064001;28;20057;-47
2022/05/04 03:29:33;;;;;;;4.78;3.60;;;;;;;-140.79;100.00;63287.88;5064075;28;20039;-48
2022/05/04 03:31:59;;;;;;;5.57;3.67;;;;;;;-140.79;100.00;63287.88;5061425;28;20032;-47
2022/05/04 03:34:24;;;;;;;5.15;3.83;;;;;;;-140.79;100.00;63287.88;5061103;28;20024;-47
2022/05/04 03:36:50;;;;;;;4.40;3.53;;;;;;;-140.79;100.00;63287.88;5060938;28;20020;-48
2022/05/04 03:39:16;;;;;;;5.68;4.00;;;;;;;-140.79;100.00;63287.88;5063099;28;20033;-48
2022/05/04 03:41:41;;;;;;;4.82;3.53;;;;;;;-140.79;100.00;63287.88;5045099;28;20490;-46
2022/05/04 03:44:06;;;;;;;6.00;3.63;;;;;;;-140.79;100.00;63287.88;5062475;28;20024;-48
2022/05/04 03:46:43;;;;;;;4.20;3.17;;;;;;;-140.79;100.00;63287.88;5062442;28;20747;-48
2022/05/04 03:49:08;;;;;;;5.05;3.17;;;;;;;-140.79;100.00;63287.88;5064706;28;20143;-47
2022/05/04 03:51:34;;;;;;;4.55;3.40;;;;;;;-140.79;100.00;63287.88;5062101;28;20059;-47
2022/05/04 03:54:00;;;;;;;4.75;3.65;;;;;;;-140.79;100.00;63287.88;5063432;28;20051;-47
2022/05/04 03:56:25;;;;;;;4.78;3.83;;;;;;;-140.79;100.00;63287.88;5061502;28;20024;-49
2022/05/04 03:58:51;;;;;;;5.22;3.50;;;;;;;-140.79;100.00;63287.88;5061757;28;20028;-48
2022/05/04 04:01:18;;;;;;;4.57;3.35;;;;;;;-140.79;100.00;63287.88;5045149;28;20040;-48
2022/05/04 04:03:43;;;;;;;4.30;3.25;;;;;;;-140.79;100.00;63287.88;5061077;28;20427;-48
2022/05/04 04:06:08;;;;;;;4.35;3.15;;;;;;;-140.79;100.00;63287.88;5041525;28;20040;-46
2022/05/04 04:08:34;;;;;;;4.65;3.40;;;;;;;-140.79;100.00;63287.88;5059192;28;20028;-47
2022/05/04 04:10:59;;;;;;;4.70;3.25;;;;;;;-140.79;100.00;63287.88;5064152;28;20028;-48
2022/05/04 04:13:25;;;;;;;4.18;3.45;;;;;;;-140.79;100.00;63287.88;5064642;28;20574;-48
2022/05/04 04:15:51;;;;;;;5.20;3.67;;;;;;;-140.79;100.00;63287.88;5061962;28;20472;-46
2022/05/04 04:18:20;;;;;;;6.88;3.85;;;;;;;-140.79;100.00;63287.88;5061548;28;20541;-48
2022/05/04 04:23:30;;;;;;;5.25;3.45;;;;;;;-140.79;100.00;63287.88;5057592;28;20032;-47
2022/05/04 04:25:56;;;;;;;4.55;3.60;;;;;;;-140.79;100.00;63287.88;5059605;28;20785;-47
2022/05/04 04:28:21;;;;;;;5.72;3.30;;;;;;;-140.79;100.00;63287.88;5060244;28;20032;-47
2022/05/04 04:30:47;;;;;;;4.38;3.30;;;;;;;-140.79;100.00;63287.88;5059743;28;20036;-46
2022/05/04 04:33:12;;;;;;;4.75;3.55;;;;;;;-140.79;100.00;63287.88;5059894;28;20469;-49
2022/05/04 04:35:38;;;;;;;4.68;3.00;;;;;;;-140.79;100.00;63287.88;5061130;28;20384;-47
2022/05/04 04:38:03;;;;;;;4.47;3.45;;;;;;;-140.79;100.00;63287.88;5058078;28;20028;-48
2022/05/04 04:40:29;;;;;;;4.40;3.20;;;;;;;-140.79;100.00;63287.88;5060854;28;20039;-48
2022/05/04 04:42:55;;;;;;;4.63;3.35;;;;;;;-140.79;100.00;63287.88;5060447;28;20081;-46
2022/05/04 04:45:21;;;;;;;5.53;3.42;;;;;;;-140.79;100.00;63287.88;5059582;28;20077;-48
2022/05/04 04:47:47;;;;;;;4.43;3.20;;;;;;;-140.79;100.00;63287.88;5060768;28;20035;-48
2022/05/04 04:50:13;;;;;;;4.70;3.20;;;;;;;-140.79;100.00;63287.88;5063564;28;20029;-47
2022/05/04 04:52:39;;;;;;;3.85;3.15;;;;;;;-140.79;100.00;63287.88;5062151;28;20020;-48
2022/05/04 04:55:05;;;;;;;4.43;3.30;;;;;;;-140.79;100.00;63287.88;5059707;28;20032;-48
2022/05/04 04:57:32;;;;;;;5.10;3.40;;;;;;;-140.79;100.00;63287.88;5058782;28;20105;-48
2022/05/04 04:59:57;;;;;;;4.38;3.10;;;;;;;-140.79;100.00;63287.88;5060245;28;20032;-48
2022/05/04 05:02:23;;;;;;;4.65;3.10;;;;;;;-140.79;100.00;63287.88;5058293;28;20016;-48
2022/05/04 05:04:48;;;;;;;4.20;3.05;;;;;;;-140.79;100.00;63287.88;5060426;28;20032;-47
2022/05/04 05:07:13;;;;;;;3.95;3.10;;;;;;;-140.79;100.00;63287.88;5058656;28;20040;-46
2022/05/04 05:09:39;;;;;;;4.85;3.35;;;;;;;-140.79;100.00;63287.88;5059094;28;20017;-46
2022/05/04 05:12:05;;;;;;;4.45;3.30;;;;;;;-140.79;100.00;63287.88;5060986;28;20032;-48
2022/05/04 05:17:14;;;;;;;5.25;3.50;;;;;;;-140.79;100.00;63287.88;5059590;28;20093;-47
2022/05/04 05:19:40;;;;;;;4.60;3.25;;;;;;;-140.79;100.00;63287.88;5062353;28;20032;-48
2022/05/04 05:22:05;;;;;;;4.00;3.00;;;;;;;-140.79;100.00;63287.88;5058018;28;20036;-46
2022/05/04 05:24:30;;;;;;;4.20;3.00;;;;;;;-140.79;100.00;63287.88;5062366;28;20115;-47
2022/05/04 05:26:56;;;;;;;5.95;3.28;;;;;;;-140.79;100.00;63287.88;5061101;28;20040;-46
2022/05/04 05:29:21;;;;;;;5.28;3.10;;;;;;;-140.79;100.00;63287.88;5055424;28;20465;-48
2022/05/04 05:31:47;;;;;;;4.45;2.80;;;;;;;-140.79;100.00;63287.88;5059191;28;20048;-47
2022/05/04 05:34:12;;;;;;;4.68;3.05;;;;;;;-140.79;100.00;63287.88;5057031;28;20036;-48
2022/05/04 05:36:37;;;;;;;3.30;2.60;;;;;;;-140.79;100.00;63287.88;5059627;28;20028;-49
2022/05/04 05:39:03;;;;;;;5.03;3.10;;;;;;;-140.79;100.00;63287.88;5058717;28;20032;-48
2022/05/04 05:41:28;;;;;;;5.25;2.92;;;;;;;-140.79;100.00;63287.88;5057772;28;20028;-46
2022/05/04 05:43:54;;;;;;;4.05;3.05;;;;;;;-140.79;100.00;63287.88;5061550;28;20039;-46
2022/05/04 05:46:19;;;;;;;4.38;2.90;;;;;;;-140.79;100.00;63287.88;5058363;28;20028;-48
2022/05/04 05:48:47;;;;;;;5.72;3.00;;;;;;;-140.79;100.00;63287.88;5062051;28;20462;-47
2022/05/04 05:51:12;;;;;;;3.80;2.72;;;;;;;-140.79;100.00;63287.88;5056563;28;20105;-48
2022/05/04 05:53:38;;;;;;;3.58;2.70;;;;;;;-140.79;100.00;63287.88;5059678;28;20495;-47
2022/05/04 05:56:03;;;;;;;4.50;2.72;;;;;;;-140.79;100.00;63287.88;5058021;28;20092;-47
2022/05/04 05:58:29;;;;;;;3.50;2.50;;;;;;;-140.79;100.00;63287.88;5061929;28;20695;-47
2022/05/04 06:00:54;;;;;;;4.05;2.72;;;;;;;-140.79;100.00;63287.88;5059417;28;20035;-46
2022/05/04 06:03:21;;;;;;;4.20;2.90;;;;;;;-140.79;100.00;63287.88;5060160;28;20029;-48
2022/05/04 06:05:47;;;;;;;3.80;2.60;;;;;;;-140.79;100.00;63287.88;5041564;28;20024;-47
2022/05/04 06:08:12;;;;;;;4.55;2.83;;;;;;;-140.79;100.00;63287.88;5059251;28;20631;-47
2022/05/04 06:10:38;;;;;;;4.30;2.80;;;;;;;-140.79;100.00;63287.88;5060675;28;20031;-48
2022/05/04 06:13:04;;;;;;;3.75;3.00;;;;;;;-140.79;100.00;63287.88;5058994;28;20032;-48
2022/05/04 06:15:29;;;;;;;3.78;3.03;;;;;;;-140.79;100.00;63287.88;5022155;28;20043;-45
2022/05/04 06:17:55;;;;;;;3.40;2.78;;;;;;;-140.79;100.00;63287.88;5043181;28;20020;-47
2022/05/04 06:20:22;;;;;;;4.72;2.65;;;;;;;-140.79;100.00;63287.88;5058353;28;20504;-48
2022/05/04 06:22:47;;;;;;;3.88;2.80;;;;;;;-140.79;100.00;63287.88;5059480;28;20012;-47
2022/05/04 06:25:13;;;;;;;4.32;2.78;;;;;;;-140.79;100.00;63287.88;5057811;28;20028;-47
2022/05/04 06:27:38;;;;;;;4.75;2.67;;;;;;;-140.79;100.00;63287.88;5058160;28;20535;-46
2022/05/04 06:35:32;;;;;;;3.90;2.70;;;;;;;-140.79;100.00;63287.88;5057169;28;20101;-49
2022/05/04 06:37:58;;;;;;;3.38;2.72;;;;;;;-140.79;100.00;63287.88;5058219;28;20050;-47
2022/05/04 06:40:24;;;;;;;4.60;3.00;;;;;;;-140.79;100.00;63287.88;5057257;28;20469;-48
2022/05/04 06:42:49;;;;;;;4.25;3.05;;;;;;;-140.79;100.00;63287.88;5058268;28;20039;-49
2022/05/04 06:45:14;;;;;;;4.18;2.67;;;;;;;-140.79;100.00;63287.88;5057876;28;20029;-47
2022/05/04 06:47:40;;;;;;;3.55;2.78;;;;;;;-140.79;100.00;63287.88;5058289;28;20070;-47
2022/05/04 06:50:06;;;;;;;3.58;2.50;;;;;;;-140.79;100.00;63287.88;5056306;28;20508;-47
2022/05/04 06:52:32;;;;;;;3.50;2.42;;;;;;;-140.79;100.00;63287.88;5056090;28;20050;-47
2022/05/04 06:54:57;;;;;;;5.38;4.07;;;;;;;-140.79;100.00;63287.88;5041898;28;20506;-50
2022/05/04 06:57:23;;;;;;;4.95;4.28;;;;;;;-140.79;100.00;63287.88;5059276;28;20035;-47
2022/05/04 06:59:49;;;;;;;6.85;4.50;;;;;;;-140.79;100.00;63287.88;5061076;28;20488;-47
2022/05/04 07:02:14;;;;;;;9.75;4.53;;;;;;;-140.79;100.00;63287.88;5057823;28;21068;-48
2022/05/04 07:04:39;;;;;;;6.40;4.60;;;;;;;-140.79;100.00;63287.88;5059529;28;20052;-46
2022/05/04 07:07:05;;;;;;;8.38;4.95;;;;;;;-140.79;100.00;63287.88;5060627;28;20350;-47
2022/05/04 07:09:30;;;;;;;10.00;5.03;;;;;;;-140.79;100.00;63287.88;5060011;28;20024;-47
2022/05/04 07:11:56;;;;;;;10.20;5.50;;;;;;;-140.79;100.00;63287.88;5060245;28;20025;-44
2022/05/04 07:14:22;;;;;;;8.30;4.97;;;;;;;-140.79;100.00;63287.88;5056985;28;20023;-45
2022/05/04 07:16:47;;;;;;;11.63;5.88;;;;;;;-140.79;100.00;63287.88;5060478;28;20388;-46
2022/05/04 07:19:14;;;;;;;6.53;4.50;;;;;;;-140.79;100.00;63287.88;5060257;28;20025;-47
2022/05/04 07:21:39;;;;;;;7.97;5.63;;;;;;;-140.79;100.00;63287.88;5059308;28;20032;-48
2022/05/04 07:24:05;;;;;;;8.57;5.32;;;;;;;-140.79;100.00;63287.88;5061702;28;20016;-47
2022/05/04 07:26:31;;;;;;;7.75;4.70;;;;;;;-140.79;100.00;63287.88;5064657;28;20094;-47
2022/05/04 07:28:56;;;;;;;9.25;5.07;;;;;;;-140.79;100.00;63287.88;5064538;28;20119;-46
2022/05/04 07:31:22;;;;;;;7.53;4.85;;;;;;;-140.79;100.00;63287.88;5061395;28;20025;-46
2022/05/04 07:33:47;;;;;;;7.68;5.28;;;;;;;-140.79;100.00;63287.88;5064680;28;20484;-47
2022/05/04 07:36:13;;;;;;;8.07;5.10;;;;;;;-140.79;100.00;63287.88;5064693;28;20484;-47
2022/05/04 07:38:38;;;;;;;8.18;4.88;;;;;;;-140.79;100.00;63287.88;5063050;28;20028;-47
2022/05/04 07:43:47;;;;;;;9.70;4.97;;;;;;;-140.79;100.00;63287.88;5065108;28;20034;-46
2022/05/04 07:46:13;;;;;;;9.50;5.05;;;;;;;-140.79;100.00;63287.88;5064126;28;20020;-47
2022/05/04 07:48:38;;;;;;;9.75;4.63;;;;;;;-140.79;100.00;63287.88;5063219;28;20028;-46
2022/05/04 07:51:04;;;;;;;7.22;4.43;;;;;;;-140.79;100.00;63287.88;5062558;28;20051;-47
2022/05/04 07:53:29;;;;;;;7.10;4.95;;;;;;;-140.79;100.00;63287.88;5060421;28;20025;-47
2022/05/04 07:55:54;;;;;;;7.55;4.90;;;;;;;-140.79;100.00;63287.88;5060247;28;20025;-46
2022/05/04 07:58:20;;;;;;;8.13;4.78;;;;;;;-140.79;100.00;63287.88;5065308;28;20438;-46
2022/05/04 08:06:13;;;;;;;8.80;4.40;;;;;;;-140.79;100.00;63287.88;5062472;28;20255;-47
2022/05/04 08:08:39;;;;;;;7.65;4.53;;;;;;;-140.79;100.00;63287.88;5060581;28;20431;-47
2022/05/04 08:11:04;;;;;;;7.43;4.10;;;;;;;-140.79;100.00;63287.88;5042707;28;20567;-47
2022/05/04 08:13:31;;;;;;;5.35;4.00;;;;;;;-140.79;100.00;63287.88;5060759;28;20149;-47
2022/05/04 08:15:56;;;;;;;8.25;4.22;;;;;;;-140.79;100.00;63287.88;5060892;28;20028;-44
2022/05/04 08:18:23;;;;;;;6.07;3.60;;;;;;;-140.79;100.00;63287.88;5064483;28;20024;-46
2022/05/04 08:20:48;;;;;;;6.80;3.90;;;;;;;-140.79;100.00;63287.88;5061165;28;20112;-47
2022/05/04 08:23:14;;;;;;;8.00;3.70;;;;;;;-140.79;100.00;63287.88;5042352;28;20017;-47
2022/05/04 08:25:39;;;;;;;5.65;3.50;;;;;;;-140.79;100.00;63287.88;5060835;28;20094;-46
2022/05/04 08:28:05;;;;;;;5.72;3.90;;;;;;;-140.79;100.00;63287.88;5062580;28;20040;-47
2022/05/04 08:30:30;;;;;;;5.03;3.33;;;;;;;-140.79;100.00;63287.88;5064939;28;20043;-47
2022/05/04 08:32:56;;;;;;;6.50;3.75;;;;;;;-140.79;100.00;63287.88;5064465;28;20037;-47
2022/05/04 08:35:21;;;;;;;5.25;3.55;;;;;;;-140.79;100.00;63287.88;5062862;28;20028;-47
2022/05/04 08:37:46;;;;;;;4.00;2.95;;;;;;;-140.79;100.00;63287.88;5060773;28;20025;-47
2022/05/04 08:40:12;;;;;;;5.07;3.60;;;;;;;-140.79;100.00;63287.88;5062521;28;20055;-45
2022/05/04 08:42:41;;;;;;;5.70;3.20;;;;;;;-140.79;100.00;63287.88;5063232;28;20145;-47
2022/05/04 08:45:10;;;;;;;5.53;3.50;;;;;;;-140.79;100.00;63287.88;5062906;28;20021;-47
2022/05/04 08:47:37;;;;;;;5.23;3.20;;;;;;;-140.79;100.00;63287.88;5064496;28;20162;-45
2022/05/04 08:50:04;;;;;;;5.93;3.08;;;;;;;-140.79;100.00;63287.88;5046986;28;20841;-47
2022/05/04 08:52:29;;;;;;;4.28;2.72;;;;;;;-140.79;100.00;63287.88;5045988;28;20656;-46
2022/05/04 08:54:54;;;;;;;4.10;2.75;;;;;;;-140.79;100.00;63287.88;5044471;28;20020;-47
2022/05/04 08:57:21;;;;;;;4.60;2.72;;;;;;;-140.79;100.00;63287.88;5044843;28;20035;-47
2022/05/04 08:59:46;;;;;;;3.40;2.60;;;;;;;-140.79;100.00;63287.88;5062409;28;20028;-48
2022/05/04 09:02:11;;;;;;;4.15;2.70;;;;;;;-140.79;100.00;63287.88;5062030;28;20039;-46
2022/05/04 09:04:41;;;;;;;4.72;2.78;;;;;;;-140.79;100.00;63287.88;5059056;28;20024;-47
2022/05/04 09:07:22;;;;;;;4.07;2.72;;;;;;;-140.79;100.00;63287.88;5062630;28;20565;-47
2022/05/04 09:09:47;;;;;;;3.90;2.67;;;;;;;-140.79;100.00;63287.88;5041549;28;20037;-47
2022/05/04 09:12:16;;;;;;;4.10;2.35;;;;;;;-140.79;100.00;63287.88;5052479;28;20035;-46
2022/05/04 09:14:42;;;;;;;4.47;2.47;;;;;;;-140.79;100.00;63287.88;5056852;28;20074;-46
2022/05/04 09:17:11;;;;;;;3.97;2.75;;;;;;;-140.79;100.00;63287.88;5061244;28;20016;-46
2022/05/04 09:19:37;;;;;;;5.03;2.72;;;;;;;-140.79;100.00;63287.88;5063940;28;20712;-47
2022/05/04 09:22:03;;;;;;;4.55;2.40;;;;;;;-140.79;100.00;63287.88;5060471;28;20107;-47
2022/05/04 09:24:29;;;;;;;3.38;2.40;;;;;;;-140.79;100.00;63287.88;5061448;28;20040;-47
2022/05/04 09:26:58;;;;;;;4.40;2.53;;;;;;;-140.79;100.00;63287.88;5060187;28;20044;-48
2022/05/04 09:29:33;;;;;;;3.85;2.55;;;;;;;-140.79;100.00;63287.88;5040855;28;20033;-47
2022/05/04 09:31:59;;;;;;;3.40;2.22;;;;;;;-140.79;100.00;63287.88;5060136;28;20020;-46
2022/05/04 09:34:34;;;;;;;4.00;2.25;;;;;;;-140.79;100.00;63287.88;5062063;28;20032;-46
2022/05/04 09:45:36;;;;;;;3.83;2.35;;;;;;;-140.79;100.00;63287.88;5062976;28;20090;-47
2022/05/04 09:48:01;;;;;;;3.13;2.30;;;;;;;-140.79;100.00;63287.88;5062658;28;20029;-46
2022/05/04 09:50:27;;;;;;;3.15;2.35;;;;;;;-140.79;100.00;63287.88;5039342;28;20021;-46
2022/05/04 09:52:53;;;;;;;3.20;2.53;;;;;;;-140.79;100.00;63287.88;5044341;28;20532;-47
2022/05/04 09:55:25;;;;;;;4.90;2.50;;;;;;;-140.79;100.00;63287.88;5007731;28;20844;-47
2022/05/04 09:57:54;;;;;;;4.50;2.50;;;;;;;-140.79;100.00;63287.88;5059120;28;20412;-46
2022/05/04 10:00:21;;;;;;;4.00;2.47;;;;;;;-140.79;100.00;63287.88;5062351;28;20055;-46
2022/05/04 10:02:50;;;;;;;3.42;2.80;;;;;;;-140.79;100.00;63287.88;5059474;28;20033;-48
2022/05/04 10:05:16;;;;;;;3.97;2.40;;;;;;;-140.79;100.00;63287.88;5058712;28;20031;-48
2022/05/04 10:07:42;;;;;;;3.97;2.47;;;;;;;-140.79;100.00;63287.88;5063581;28;20028;-46
2022/05/04 10:10:09;;;;;;;5.15;3.05;;;;;;;-140.79;100.00;63287.88;5057912;28;20385;-47
2022/05/04 10:12:38;;;;;;;3.50;2.35;;;;;;;-140.79;100.00;63287.88;5061884;28;20051;-47
2022/05/04 10:15:07;;;;;;;4.23;2.73;;;;;;;-140.79;100.00;63287.88;5062357;28;20411;-46
2022/05/04 10:17:33;;;;;;;3.83;2.45;;;;;;;-140.79;100.00;63287.88;5059512;28;20056;-46
2022/05/04 10:20:15;;;;;;;3.95;2.30;;;;;;;-140.79;100.00;63287.88;5055947;28;20024;-46
2022/05/04 10:22:44;;;;;;;3.65;2.38;;;;;;;-140.79;100.00;63287.88;5023859;28;20033;-48
2022/05/04 10:25:09;;;;;;;4.70;2.38;;;;;;;-140.79;100.00;63287.88;5024886;28;20123;-47
2022/05/04 10:27:42;;;;;;;4.43;2.40;;;;;;;-140.79;100.00;63287.88;5045442;28;20201;-46
2022/05/04 10:32:56;;;;;;;3.45;2.40;;;;;;;-140.79;100.00;63287.88;5060491;28;20154;-48
2022/05/04 10:35:41;;;;;;;3.17;1.95;;;;;;;-140.79;100.00;63287.88;5061520;28;20021;-46
2022/05/04 10:38:13;;;;;;;2.83;2.20;;;;;;;-140.79;100.00;63287.88;5059212;28;20032;-47
2022/05/04 10:40:40;;;;;;;4.10;2.30;;;;;;;-140.79;100.00;63287.88;5061106;28;20064;-47
2022/05/04 10:43:09;;;;;;;4.60;2.60;;;;;;;-140.79;100.00;63287.88;5059600;28;20537;-47
2022/05/04 10:45:41;;;;;;;3.42;2.28;;;;;;;-140.79;100.00;63287.88;5044061;28;20029;-46
2022/05/04 10:48:38;;;;;;;3.22;2.10;;;;;;;-140.79;100.00;63287.88;5056040;28;20028;-46
2022/05/04 10:51:12;;;;;;;4.07;2.35;;;;;;;-140.79;100.00;63287.88;5018689;28;20041;-47
2022/05/04 10:53:40;;;;;;;4.65;2.58;;;;;;;-140.79;100.00;63287.88;5042264;28;20033;-45
2022/05/04 10:56:07;;;;;;;3.70;2.30;;;;;;;-140.79;100.00;63287.88;5061966;28;20012;-47
2022/05/04 10:58:44;;;;;;;3.30;2.40;;;;;;;-140.79;100.00;63287.88;5064425;28;20027;-47
2022/05/04 11:01:28;;;;;;;3.75;2.35;;;;;;;-140.79;100.00;63287.88;5065071;28;20016;-47
2022/05/04 11:04:11;;;;;;;3.88;2.20;;;;;;;-140.79;100.00;63287.88;5063256;28;20056;-47
2022/05/04 11:06:44;;;;;;;3.00;2.20;;;;;;;-140.79;100.00;63287.88;5066088;28;20040;-47
2022/05/04 11:09:12;;;;;;;3.78;2.25;;;;;;;-140.79;100.00;63287.88;5065480;28;20085;-47
2022/05/04 11:11:39;;;;;;;5.97;2.17;;;;;;;-140.79;100.00;63287.88;5027805;28;20094;-47
2022/05/04 11:14:05;;;;;;;3.42;2.22;;;;;;;-140.79;100.00;63287.88;5057577;28;20028;-47
2022/05/04 11:16:31;;;;;;;3.63;2.30;;;;;;;-140.79;100.00;63287.88;5045014;28;20028;-46
2022/05/04 11:19:03;;;;;;;3.17;2.15;;;;;;;-140.79;100.00;63287.88;5063074;28;20032;-46
2022/05/04 11:21:29;;;;;;;3.85;2.15;;;;;;;-140.79;100.00;63287.88;5046543;28;20480;-47
2022/05/04 11:23:56;;;;;;;4.07;1.88;;;;;;;-140.79;100.00;63287.88;5058933;28;20029;-48
2022/05/04 11:26:22;;;;;;;3.97;2.38;;;;;;;-140.79;100.00;63287.88;5064575;28;20139;-47
2022/05/04 11:28:47;;;;;;;3.53;2.10;;;;;;;-140.79;100.00;63287.88;5063106;28;20104;-47
2022/05/04 11:31:13;;;;;;;3.50;2.10;;;;;;;-140.79;100.00;63287.88;5059903;28;20035;-47
2022/05/04 11:33:42;;;;;;;3.83;2.20;;;;;;;-140.79;100.00;63287.88;5062720;28;20783;-47
2022/05/04 11:36:08;;;;;;;2.80;2.20;;;;;;;-140.79;100.00;63287.88;5065304;28;20016;-47
2022/05/04 11:38:34;;;;;;;3.13;2.10;;;;;;;-140.79;100.00;63287.88;5061575;28;20029;-47
2022/05/04 11:40:59;;;;;;;3.30;2.35;;;;;;;-140.79;100.00;63287.88;5061685;28;20024;-47